Time;durP1;ratioP1;P1;durP2;ratioP2;P2;SDS_P1;SDS_P2;PMS_P1;PMS_P2;Temp;Humidity;BMP_temperature;BMP_pressure;BME280_temperature;BME280_humidity;BME280_pressure;Samples;Min_cycle;Max_cycle;Signal;HPM_P1;HPM_P2
2023/08/31 00:02:05;;;;;;;1.17;0.85;;;19.50;65.20;;;;;;5053906;28;20175;-69
2023/08/31 00:04:31;;;;;;;1.10;0.80;;;19.50;64.40;;;;;;5054012;28;20676;-69
2023/08/31 00:06:56;;;;;;;3.33;0.98;;;19.50;64.20;;;;;;5052952;28;20715;-70
2023/08/31 00:09:25;;;;;;;1.48;1.10;;;19.40;65.00;;;;;;5053514;28;20202;-69
2023/08/31 00:11:51;;;;;;;0.70;0.70;;;19.40;64.20;;;;;;5053596;28;20725;-68
2023/08/31 00:14:17;;;;;;;0.80;0.80;;;19.40;64.30;;;;;;5052770;28;20266;-68
2023/08/31 00:16:42;;;;;;;1.30;0.77;;;19.50;64.30;;;;;;5053765;28;20179;-68
2023/08/31 00:19:08;;;;;;;0.95;0.90;;;19.40;64.20;;;;;;5053305;28;20175;-68
2023/08/31 00:21:34;;;;;;;1.08;0.98;;;19.40;64.20;;;;;;5052905;28;20175;-68
2023/08/31 00:23:59;;;;;;;0.93;0.85;;;19.40;64.30;;;;;;5053425;28;20186;-68
2023/08/31 00:26:25;;;;;;;1.20;1.10;;;19.50;64.30;;;;;;5052797;28;20183;-68
2023/08/31 00:28:50;;;;;;;0.75;0.75;;;19.40;64.30;;;;;;5053181;28;20225;-68
2023/08/31 00:31:16;;;;;;;4.25;1.23;;;19.40;64.40;;;;;;5053027;28;20787;-69
2023/08/31 00:33:43;;;;;;;0.98;0.80;;;19.40;64.30;;;;;;5052816;28;20182;-70
2023/08/31 00:36:08;;;;;;;1.42;1.00;;;19.40;64.30;;;;;;5052939;28;20172;-70
2023/08/31 00:38:34;;;;;;;1.10;1.02;;;19.40;64.30;;;;;;5053460;28;20182;-68
2023/08/31 00:40:59;;;;;;;1.23;0.93;;;19.40;64.40;;;;;;5052448;28;20228;-68
2023/08/31 00:43:25;;;;;;;1.23;1.00;;;19.40;65.30;;;;;;5052738;28;20183;-68
2023/08/31 00:45:52;;;;;;;0.82;0.80;;;19.40;64.50;;;;;;5053346;28;20217;-69
2023/08/31 00:48:18;;;;;;;1.15;1.00;;;19.40;64.30;;;;;;5052442;28;20225;-68
2023/08/31 00:50:45;;;;;;;0.80;0.80;;;19.40;64.40;;;;;;5052938;28;20258;-68
2023/08/31 00:53:11;;;;;;;1.35;1.10;;;19.40;64.40;;;;;;5051511;28;20517;-68
2023/08/31 00:55:37;;;;;;;1.13;1.02;;;19.40;64.40;;;;;;5052394;28;20185;-68
2023/08/31 00:58:05;;;;;;;1.15;1.00;;;19.40;64.40;;;;;;5051319;28;20230;-68
2023/08/31 01:00:45;;;;;;;1.48;0.93;;;19.40;64.40;;;;;;5052726;28;20182;-68
2023/08/31 01:03:24;;;;;;;0.70;0.70;;;19.40;64.40;;;;;;5052039;28;20174;-69
2023/08/31 01:06:11;;;;;;;0.75;0.73;;;19.40;64.50;;;;;;5051143;28;20179;-69
2023/08/31 01:08:48;;;;;;;1.15;0.95;;;19.40;64.40;;;;;;5051227;28;20298;-69
2023/08/31 01:11:31;;;;;;;1.02;0.93;;;19.40;65.30;;;;;;5051277;28;20254;-69
2023/08/31 01:14:18;;;;;;;0.70;0.70;;;19.40;64.50;;;;;;5051604;28;20540;-68
2023/08/31 01:16:45;;;;;;;0.82;0.80;;;19.40;64.50;;;;;;5050857;28;20171;-67
2023/08/31 01:19:44;;;;;;;0.95;0.80;;;19.40;64.50;;;;;;5051163;28;20264;-68
2023/08/31 01:22:13;;;;;;;1.17;1.00;;;19.40;64.50;;;;;;5050396;28;20187;-68
2023/08/31 01:24:39;;;;;;;1.23;0.90;;;19.30;64.40;;;;;;5052029;28;20175;-68
2023/08/31 01:27:05;;;;;;;0.90;0.85;;;19.30;64.50;;;;;;5051182;28;20218;-68
2023/08/31 01:29:30;;;;;;;1.30;0.90;;;19.40;64.50;;;;;;5051230;28;20182;-68
2023/08/31 01:31:56;;;;;;;0.75;0.63;;;19.40;64.60;;;;;;5051004;28;20171;-69
2023/08/31 01:34:21;;;;;;;1.00;0.90;;;19.30;64.40;;;;;;5052460;28;20664;-69
2023/08/31 01:36:50;;;;;;;1.30;0.93;;;19.30;64.60;;;;;;5052141;28;20281;-69
2023/08/31 01:39:35;;;;;;;0.80;0.80;;;19.40;64.50;;;;;;5052055;28;20171;-69
2023/08/31 01:42:03;;;;;;;1.00;0.80;;;19.30;64.50;;;;;;5052306;28;20218;-69
2023/08/31 01:44:29;;;;;;;0.98;0.90;;;19.30;64.60;;;;;;5050867;28;20175;-68
2023/08/31 01:47:05;;;;;;;1.38;0.80;;;19.30;64.50;;;;;;5051170;28;20210;-70
2023/08/31 01:49:38;;;;;;;1.73;0.85;;;19.30;64.50;;;;;;5052512;28;20167;-69
2023/08/31 01:52:04;;;;;;;0.85;0.85;;;19.30;64.60;;;;;;5051628;28;20171;-69
2023/08/31 01:54:30;;;;;;;0.90;0.88;;;19.30;64.60;;;;;;5052249;28;20190;-68
2023/08/31 01:56:56;;;;;;;2.17;1.13;;;19.30;64.60;;;;;;5051184;28;20513;-69
2023/08/31 01:59:21;;;;;;;1.05;0.95;;;19.30;65.40;;;;;;5051214;28;20228;-68
2023/08/31 02:01:47;;;;;;;1.42;1.05;;;19.30;65.50;;;;;;5052459;28;20300;-69
2023/08/31 02:04:13;;;;;;;1.48;1.30;;;19.30;64.60;;;;;;5051964;28;20647;-70
2023/08/31 02:06:38;;;;;;;0.80;0.80;;;19.30;64.60;;;;;;5051442;28;20179;-68
2023/08/31 02:09:05;;;;;;;1.08;1.05;;;19.30;64.60;;;;;;5051978;28;20179;-69
2023/08/31 02:11:31;;;;;;;1.30;1.02;;;19.30;64.70;;;;;;5052447;28;20171;-68
2023/08/31 02:13:57;;;;;;;1.10;1.10;;;19.30;64.70;;;;;;5051462;28;20186;-68
2023/08/31 02:16:23;;;;;;;2.25;1.35;;;19.30;64.70;;;;;;5052162;28;20630;-67
2023/08/31 02:18:48;;;;;;;1.38;1.17;;;19.30;64.70;;;;;;5055403;28;20197;-68
2023/08/31 02:21:14;;;;;;;1.73;1.27;;;19.30;64.70;;;;;;5055247;28;20179;-68
2023/08/31 02:23:39;;;;;;;1.15;1.05;;;19.30;64.70;;;;;;5055708;28;20179;-68
2023/08/31 02:26:05;;;;;;;1.30;1.17;;;19.30;64.70;;;;;;5055207;28;20234;-68
2023/08/31 02:28:30;;;;;;;1.70;1.20;;;19.30;64.70;;;;;;5055624;28;20214;-68
2023/08/31 02:31:01;;;;;;;0.90;0.90;;;19.30;64.70;;;;;;5055749;28;20171;-71
2023/08/31 02:33:26;;;;;;;1.17;1.08;;;19.30;64.80;;;;;;5055057;28;20201;-68
2023/08/31 02:35:53;;;;;;;2.03;1.23;;;19.30;64.80;;;;;;5055223;28;20171;-69
2023/08/31 02:38:19;;;;;;;1.00;0.90;;;19.30;64.70;;;;;;5055399;28;20240;-69
2023/08/31 02:40:47;;;;;;;1.17;0.98;;;19.20;64.80;;;;;;5055000;28;20171;-69
2023/08/31 02:43:13;;;;;;;1.40;1.10;;;19.20;64.80;;;;;;5054946;28;20638;-69
2023/08/31 02:45:38;;;;;;;0.95;0.88;;;19.20;64.80;;;;;;5054392;28;20175;-68
2023/08/31 02:48:06;;;;;;;1.48;1.13;;;19.30;65.70;;;;;;5054400;28;20681;-69
2023/08/31 02:50:31;;;;;;;1.20;1.10;;;19.20;64.80;;;;;;5055362;28;20175;-68
2023/08/31 02:52:57;;;;;;;1.40;1.30;;;19.20;64.90;;;;;;5055274;28;20189;-68
2023/08/31 02:55:23;;;;;;;1.10;1.00;;;19.20;64.90;;;;;;5054510;28;20175;-68
2023/08/31 02:57:48;;;;;;;1.00;1.00;;;19.30;64.90;;;;;;5055116;28;20229;-68
2023/08/31 03:00:15;;;;;;;1.35;1.17;;;19.20;64.90;;;;;;5054685;28;20167;-69
2023/08/31 03:02:40;;;;;;;1.42;1.33;;;19.30;64.90;;;;;;5054400;28;20563;-68
2023/08/31 03:05:06;;;;;;;0.82;0.82;;;19.20;64.90;;;;;;5054546;28;20661;-70
2023/08/31 03:07:32;;;;;;;1.33;1.23;;;19.20;64.90;;;;;;5054819;28;20215;-69
2023/08/31 03:09:57;;;;;;;1.40;1.30;;;19.20;64.90;;;;;;5054282;28;20171;-68
2023/08/31 03:12:23;;;;;;;1.55;1.30;;;19.20;64.90;;;;;;5054916;28;20179;-67
2023/08/31 03:14:49;;;;;;;1.10;1.00;;;19.20;64.90;;;;;;5054955;28;20198;-68
2023/08/31 03:17:14;;;;;;;0.90;0.90;;;19.20;64.90;;;;;;5053793;28;20658;-68
2023/08/31 03:19:40;;;;;;;1.48;1.30;;;19.20;64.90;;;;;;5054710;28;20528;-67
2023/08/31 03:22:05;;;;;;;1.52;1.10;;;19.20;64.90;;;;;;5053879;28;20679;-68
2023/08/31 03:24:35;;;;;;;1.33;1.13;;;19.20;65.70;;;;;;5054678;28;20526;-67
2023/08/31 03:27:00;;;;;;;2.42;0.80;;;19.30;65.00;;;;;;5054401;28;20207;-68
2023/08/31 03:29:26;;;;;;;1.67;1.30;;;19.20;64.90;;;;;;5053525;28;20178;-68
2023/08/31 03:31:51;;;;;;;1.65;1.20;;;19.20;64.90;;;;;;5054374;28;20181;-69
2023/08/31 03:34:17;;;;;;;1.50;1.40;;;19.20;64.90;;;;;;5054186;28;20672;-69
2023/08/31 03:36:43;;;;;;;1.20;1.10;;;19.20;64.90;;;;;;5053853;28;20179;-70
2023/08/31 03:39:09;;;;;;;2.63;1.05;;;19.20;64.90;;;;;;5054024;28;20308;-69
2023/08/31 03:41:35;;;;;;;1.25;1.15;;;19.20;64.90;;;;;;5054383;28;20202;-68
2023/08/31 03:44:01;;;;;;;1.45;1.35;;;19.20;64.90;;;;;;5053391;28;20191;-69
2023/08/31 03:46:27;;;;;;;1.35;1.25;;;19.20;64.90;;;;;;5054068;28;20187;-69
2023/08/31 03:48:52;;;;;;;1.52;1.08;;;19.20;64.90;;;;;;5053989;28;20298;-68
2023/08/31 03:51:18;;;;;;;1.30;1.08;;;19.20;64.90;;;;;;5053321;28;20178;-68
2023/08/31 03:53:44;;;;;;;1.20;1.00;;;19.20;65.00;;;;;;5054330;28;20181;-68
2023/08/31 03:56:10;;;;;;;1.30;1.00;;;19.20;65.90;;;;;;5053771;28;20183;-68
2023/08/31 03:58:36;;;;;;;1.95;1.13;;;19.20;65.00;;;;;;5053059;28;20219;-67
2023/08/31 04:01:01;;;;;;;1.20;1.10;;;19.20;65.00;;;;;;5053831;28;20182;-69
2023/08/31 04:03:27;;;;;;;1.67;1.13;;;19.20;65.00;;;;;;5053603;28;20591;-69
2023/08/31 04:05:55;;;;;;;1.65;1.20;;;19.20;65.10;;;;;;5053356;28;20250;-69
2023/08/31 04:08:21;;;;;;;1.00;1.00;;;19.20;65.90;;;;;;5053317;28;20225;-69
2023/08/31 04:10:47;;;;;;;1.73;1.17;;;19.20;65.10;;;;;;5053860;28;20255;-69
2023/08/31 04:13:12;;;;;;;1.30;1.20;;;19.20;65.10;;;;;;5052706;28;20641;-68
2023/08/31 04:15:38;;;;;;;1.40;1.30;;;19.20;65.00;;;;;;5053684;28;20189;-67
2023/08/31 04:18:03;;;;;;;1.50;1.40;;;19.20;65.10;;;;;;5053364;28;20700;-68
2023/08/31 04:20:29;;;;;;;1.17;1.10;;;19.10;65.10;;;;;;5052758;28;20258;-68
2023/08/31 04:22:55;;;;;;;1.63;1.40;;;19.10;65.10;;;;;;5053761;28;20171;-68
2023/08/31 04:25:20;;;;;;;1.23;1.00;;;19.10;65.10;;;;;;5053404;28;20269;-68
2023/08/31 04:27:46;;;;;;;0.98;0.93;;;19.10;65.20;;;;;;5052832;28;20202;-68
2023/08/31 04:30:11;;;;;;;1.27;1.17;;;19.10;65.90;;;;;;5053095;28;20293;-69
2023/08/31 04:32:37;;;;;;;1.13;1.02;;;19.10;65.10;;;;;;5052946;28;20203;-69
2023/08/31 04:35:06;;;;;;;1.80;1.20;;;19.10;65.10;;;;;;5052940;28;20577;-71
2023/08/31 04:37:32;;;;;;;1.20;1.10;;;19.20;65.20;;;;;;5053508;28;20178;-69
2023/08/31 04:39:58;;;;;;;1.00;1.00;;;19.10;65.10;;;;;;5051926;28;20712;-68
2023/08/31 04:42:24;;;;;;;1.50;1.40;;;19.20;65.20;;;;;;5052558;28;20203;-68
2023/08/31 04:44:50;;;;;;;1.50;1.15;;;19.10;65.10;;;;;;5053159;28;20677;-68
2023/08/31 04:47:15;;;;;;;1.42;1.10;;;19.10;65.20;;;;;;5052009;28;20199;-68
2023/08/31 04:49:41;;;;;;;1.35;1.25;;;19.10;65.20;;;;;;5053245;28;20672;-68
2023/08/31 04:52:07;;;;;;;1.30;1.20;;;19.10;66.00;;;;;;5052927;28;20168;-68
2023/08/31 04:54:32;;;;;;;1.65;1.23;;;19.10;65.20;;;;;;5052266;28;20185;-67
2023/08/31 04:56:58;;;;;;;1.30;1.20;;;19.10;65.20;;;;;;5052780;28;20266;-68
2023/08/31 04:59:23;;;;;;;1.55;1.30;;;19.10;65.20;;;;;;5052654;28;20223;-68
2023/08/31 05:01:49;;;;;;;1.38;1.27;;;19.10;65.20;;;;;;5052165;28;20183;-69
2023/08/31 05:04:14;;;;;;;2.05;1.35;;;19.10;65.20;;;;;;5052792;28;20171;-69
2023/08/31 05:06:40;;;;;;;1.25;1.15;;;19.10;65.30;;;;;;5052950;28;20171;-68
2023/08/31 05:09:06;;;;;;;1.30;1.17;;;19.10;66.10;;;;;;5051846;28;20175;-68
2023/08/31 05:11:31;;;;;;;1.98;1.23;;;19.10;65.30;;;;;;5052921;28;20216;-67
2023/08/31 05:13:57;;;;;;;1.98;1.50;;;19.10;65.20;;;;;;5052932;28;20547;-68
2023/08/31 05:16:22;;;;;;;2.83;1.52;;;19.10;65.30;;;;;;5051984;28;20224;-67
2023/08/31 05:18:51;;;;;;;1.15;1.00;;;19.10;65.30;;;;;;5053000;28;20179;-67
2023/08/31 05:21:16;;;;;;;1.27;1.17;;;19.10;65.30;;;;;;5052430;28;20169;-67
2023/08/31 05:23:42;;;;;;;2.08;1.25;;;19.10;65.30;;;;;;5052050;28;20171;-68
2023/08/31 05:26:08;;;;;;;1.55;1.10;;;19.10;65.30;;;;;;5052380;28;20224;-67
2023/08/31 05:28:33;;;;;;;1.73;1.45;;;19.10;65.30;;;;;;5052526;28;20218;-68
2023/08/31 05:31:00;;;;;;;1.05;1.02;;;19.10;65.40;;;;;;5051595;28;20182;-68
2023/08/31 05:33:28;;;;;;;1.38;1.17;;;19.10;65.30;;;;;;5052397;28;20544;-69
2023/08/31 05:35:54;;;;;;;1.50;1.30;;;19.10;65.40;;;;;;5052220;28;20175;-70
2023/08/31 05:38:20;;;;;;;1.45;1.30;;;19.10;65.30;;;;;;5052065;28;20186;-69
2023/08/31 05:40:46;;;;;;;1.83;1.45;;;19.10;65.40;;;;;;5052509;28;20179;-69
2023/08/31 05:43:14;;;;;;;2.25;1.35;;;19.00;65.30;;;;;;5051724;28;20182;-68
2023/08/31 05:45:39;;;;;;;1.10;1.02;;;19.10;65.40;;;;;;5052202;28;20175;-68
2023/08/31 05:48:05;;;;;;;2.13;1.40;;;19.10;65.40;;;;;;5052325;28;20214;-68
2023/08/31 05:50:31;;;;;;;1.50;1.40;;;19.10;65.40;;;;;;5051822;28;20179;-68
2023/08/31 05:52:57;;;;;;;1.40;1.30;;;19.10;65.40;;;;;;5055035;28;20545;-67
2023/08/31 05:55:22;;;;;;;1.30;1.20;;;19.10;65.40;;;;;;5056137;28;20263;-68
2023/08/31 05:57:48;;;;;;;1.30;1.20;;;19.10;65.40;;;;;;5055456;28;20313;-68
2023/08/31 06:00:14;;;;;;;1.85;1.40;;;19.10;65.50;;;;;;5055804;28;20262;-69
2023/08/31 06:02:40;;;;;;;1.25;1.10;;;19.10;65.50;;;;;;5056384;28;20178;-68
2023/08/31 06:05:06;;;;;;;1.10;1.00;;;19.10;65.50;;;;;;5055128;28;20171;-69
2023/08/31 06:07:31;;;;;;;1.60;1.08;;;19.10;65.40;;;;;;5056313;28;20207;-68
2023/08/31 06:09:57;;;;;;;1.42;1.25;;;19.10;65.50;;;;;;5056145;28;20261;-68
2023/08/31 06:12:22;;;;;;;1.42;1.30;;;19.10;65.60;;;;;;5055178;28;20179;-67
2023/08/31 06:14:48;;;;;;;1.30;1.17;;;19.10;65.50;;;;;;5055749;28;20178;-68
2023/08/31 06:17:14;;;;;;;1.23;1.13;;;19.10;65.50;;;;;;5055777;28;20171;-67
2023/08/31 06:19:41;;;;;;;1.45;1.35;;;19.10;66.40;;;;;;5055175;28;20696;-67
2023/08/31 06:22:06;;;;;;;1.50;1.40;;;19.10;65.50;;;;;;5055622;28;20240;-68
2023/08/31 06:24:32;;;;;;;1.13;1.10;;;19.10;65.50;;;;;;5055770;28;20175;-67
2023/08/31 06:26:58;;;;;;;1.15;1.15;;;19.10;65.50;;;;;;5054610;28;20175;-67
2023/08/31 06:29:24;;;;;;;1.83;1.13;;;19.10;65.50;;;;;;5055566;28;20182;-68
2023/08/31 06:31:49;;;;;;;1.77;1.05;;;19.10;65.50;;;;;;5055583;28;20178;-69
2023/08/31 06:34:15;;;;;;;1.83;1.50;;;19.10;65.40;;;;;;5054729;28;20228;-69
2023/08/31 06:36:40;;;;;;;1.52;1.42;;;19.20;65.40;;;;;;5055582;28;20684;-69
2023/08/31 06:39:06;;;;;;;1.15;1.15;;;19.20;65.30;;;;;;5054813;28;20175;-69
2023/08/31 06:41:32;;;;;;;1.40;1.30;;;19.10;65.30;;;;;;5055206;28;20559;-70
2023/08/31 06:43:57;;;;;;;1.42;1.30;;;19.10;65.40;;;;;;5054022;28;20207;-69
2023/08/31 06:46:23;;;;;;;1.95;1.23;;;19.10;65.40;;;;;;5054912;28;20186;-69
2023/08/31 06:48:48;;;;;;;1.30;1.20;;;19.10;65.40;;;;;;5054923;28;20578;-68
2023/08/31 06:51:14;;;;;;;1.33;1.15;;;19.20;65.30;;;;;;5055036;28;20168;-68
2023/08/31 06:53:42;;;;;;;1.30;1.20;;;19.30;65.20;;;;;;5054649;28;20184;-68
2023/08/31 06:56:07;;;;;;;1.30;1.20;;;19.20;65.10;;;;;;5054989;28;20305;-69
2023/08/31 06:58:33;;;;;;;1.27;1.17;;;19.20;65.30;;;;;;5055031;28;20310;-68
2023/08/31 07:00:58;;;;;;;1.38;1.25;;;19.20;65.40;;;;;;5054403;28;20175;-70
2023/08/31 07:03:24;;;;;;;1.50;1.40;;;19.10;65.40;;;;;;5054047;28;20168;-69
2023/08/31 07:05:49;;;;;;;1.42;1.00;;;19.20;65.50;;;;;;5055049;28;20171;-70
2023/08/31 07:08:15;;;;;;;1.33;1.23;;;19.20;65.40;;;;;;5053900;28;20214;-70
2023/08/31 07:10:40;;;;;;;1.08;1.08;;;19.20;65.50;;;;;;5055097;28;20674;-68
2023/08/31 07:13:06;;;;;;;1.20;1.10;;;19.10;65.40;;;;;;5054438;28;20642;-68
2023/08/31 07:15:31;;;;;;;1.65;1.50;;;19.10;65.50;;;;;;5054320;28;20172;-67
2023/08/31 07:17:57;;;;;;;1.77;1.42;;;19.10;65.50;;;;;;5054819;28;20248;-68
2023/08/31 07:20:22;;;;;;;1.13;1.02;;;19.20;65.60;;;;;;5054738;28;20171;-68
2023/08/31 07:22:48;;;;;;;2.00;1.30;;;19.20;65.60;;;;;;5053929;28;20650;-68
2023/08/31 07:25:14;;;;;;;2.00;1.40;;;19.20;65.70;;;;;;5054323;28;20222;-68
2023/08/31 07:27:40;;;;;;;1.58;1.38;;;19.20;65.60;;;;;;5054477;28;20214;-68
2023/08/31 07:30:06;;;;;;;1.55;1.30;;;19.20;66.50;;;;;;5053870;28;20194;-68
2023/08/31 07:32:31;;;;;;;1.92;1.15;;;19.20;65.60;;;;;;5054619;28;20258;-69
2023/08/31 07:34:57;;;;;;;1.35;1.25;;;19.20;65.70;;;;;;5054569;28;20250;-70
2023/08/31 07:37:23;;;;;;;2.97;1.60;;;19.20;65.70;;;;;;5053691;28;20519;-69
2023/08/31 07:39:48;;;;;;;1.20;1.20;;;19.20;65.70;;;;;;5054230;28;20656;-69
2023/08/31 07:42:14;;;;;;;1.35;1.25;;;19.20;65.70;;;;;;5053903;28;20182;-69
2023/08/31 07:44:41;;;;;;;1.95;1.45;;;19.20;65.60;;;;;;5053512;28;20214;-68
2023/08/31 07:47:07;;;;;;;1.20;1.10;;;19.20;65.50;;;;;;5053791;28;20203;-69
2023/08/31 07:49:33;;;;;;;2.20;1.23;;;19.20;65.40;;;;;;5053634;28;20301;-68
2023/08/31 07:51:58;;;;;;;1.95;1.48;;;19.20;65.50;;;;;;5053721;28;20266;-68
2023/08/31 07:54:24;;;;;;;1.27;1.20;;;19.20;65.40;;;;;;5053946;28;20673;-68
2023/08/31 07:56:50;;;;;;;1.80;1.30;;;19.20;65.30;;;;;;5053274;28;20246;-68
2023/08/31 07:59:17;;;;;;;1.60;1.10;;;19.30;65.10;;;;;;5053423;28;20254;-69
2023/08/31 08:01:42;;;;;;;1.38;1.27;;;19.40;64.90;;;;;;5054064;28;20540;-70
2023/08/31 08:04:08;;;;;;;1.23;1.13;;;19.40;64.80;;;;;;5052876;28;20637;-70
2023/08/31 08:06:33;;;;;;;1.40;1.30;;;19.40;64.80;;;;;;5053778;28;20172;-69
2023/08/31 08:08:59;;;;;;;1.08;1.02;;;19.40;65.00;;;;;;5053557;28;20587;-69
2023/08/31 08:11:24;;;;;;;1.50;1.02;;;19.40;65.00;;;;;;5052865;28;20167;-68
2023/08/31 08:13:50;;;;;;;1.40;1.13;;;19.40;65.00;;;;;;5053800;28;20179;-68
2023/08/31 08:16:15;;;;;;;1.13;1.02;;;19.40;65.00;;;;;;5053280;28;20167;-68
2023/08/31 08:18:41;;;;;;;1.65;1.33;;;19.40;65.00;;;;;;5052938;28;20175;-67
2023/08/31 08:21:07;;;;;;;1.33;1.23;;;19.40;65.00;;;;;;5053078;28;20266;-68
2023/08/31 08:23:32;;;;;;;1.58;1.08;;;19.40;66.00;;;;;;5053378;28;20237;-68
2023/08/31 08:25:59;;;;;;;1.77;1.23;;;19.40;65.10;;;;;;5052381;28;20229;-68
2023/08/31 08:28:25;;;;;;;1.17;1.10;;;19.40;65.10;;;;;;5053166;28;20213;-68
2023/08/31 08:30:51;;;;;;;1.67;1.30;;;19.40;65.20;;;;;;5053513;28;20179;-68
2023/08/31 08:33:16;;;;;;;1.73;1.15;;;19.40;65.30;;;;;;5052274;28;20197;-69
2023/08/31 08:35:42;;;;;;;2.00;0.98;;;19.30;65.40;;;;;;5053463;28;20224;-70
2023/08/31 08:38:07;;;;;;;1.45;1.13;;;19.40;65.30;;;;;;5053154;28;20633;-70
2023/08/31 08:40:34;;;;;;;1.08;0.98;;;19.40;65.10;;;;;;5052439;28;20646;-68
2023/08/31 08:43:05;;;;;;;1.13;1.00;;;19.50;65.00;;;;;;5052960;28;20186;-69
2023/08/31 08:45:38;;;;;;;1.50;1.08;;;19.50;65.00;;;;;;5053289;28;20182;-70
2023/08/31 08:48:05;;;;;;;1.10;1.00;;;19.50;65.00;;;;;;5052758;28;20229;-70
2023/08/31 08:50:33;;;;;;;1.13;1.02;;;19.50;65.00;;;;;;5052104;28;20228;-68
2023/08/31 08:52:59;;;;;;;1.73;1.00;;;19.60;65.10;;;;;;5051133;28;20179;-67
2023/08/31 08:55:25;;;;;;;2.13;1.20;;;19.60;65.10;;;;;;5052752;28;20182;-67
2023/08/31 08:57:50;;;;;;;1.30;1.20;;;19.50;65.00;;;;;;5052881;28;20608;-68
2023/08/31 09:00:16;;;;;;;1.17;0.90;;;19.50;65.00;;;;;;5051915;28;20532;-69
2023/08/31 09:02:42;;;;;;;1.27;1.17;;;19.50;65.00;;;;;;5053024;28;20650;-68
2023/08/31 09:05:07;;;;;;;1.33;1.20;;;19.50;65.10;;;;;;5052396;28;20622;-70
2023/08/31 09:07:36;;;;;;;2.55;1.08;;;19.50;65.20;;;;;;5051995;28;20210;-68
2023/08/31 09:10:03;;;;;;;1.60;1.38;;;19.50;66.10;;;;;;5052658;28;20237;-68
2023/08/31 09:12:29;;;;;;;1.38;1.23;;;19.50;65.30;;;;;;5052809;28;20176;-67
2023/08/31 09:15:01;;;;;;;1.42;1.33;;;19.50;65.20;;;;;;5052097;28;20533;-68
2023/08/31 09:17:32;;;;;;;1.00;0.90;;;19.50;65.20;;;;;;5052544;28;20179;-68
2023/08/31 09:20:01;;;;;;;1.25;1.15;;;19.50;65.20;;;;;;5051182;28;20642;-68
2023/08/31 09:22:27;;;;;;;1.33;1.10;;;19.50;65.10;;;;;;5051836;28;20240;-67
2023/08/31 09:24:52;;;;;;;1.52;1.10;;;19.60;65.10;;;;;;5052803;28;20642;-68
2023/08/31 09:27:19;;;;;;;1.48;1.23;;;19.60;65.10;;;;;;5054012;28;20219;-68
2023/08/31 09:29:46;;;;;;;1.35;1.17;;;19.70;64.90;;;;;;5055022;28;20175;-68
2023/08/31 09:32:16;;;;;;;1.13;1.02;;;19.80;64.70;;;;;;5056407;28;20185;-69
2023/08/31 09:34:42;;;;;;;1.23;1.08;;;19.90;64.70;;;;;;5056663;28;20171;-68
2023/08/31 09:37:09;;;;;;;1.42;1.20;;;19.80;64.60;;;;;;5055795;28;20178;-70
2023/08/31 09:39:40;;;;;;;2.55;1.30;;;19.90;64.60;;;;;;5056613;28;20262;-68
2023/08/31 09:42:06;;;;;;;1.90;1.20;;;19.90;64.40;;;;;;5055406;28;20551;-69
2023/08/31 09:44:31;;;;;;;0.85;0.85;;;20.00;64.40;;;;;;5056654;28;20171;-67
2023/08/31 09:46:58;;;;;;;1.63;1.23;;;20.00;64.30;;;;;;5056518;28;20630;-68
2023/08/31 09:49:23;;;;;;;1.60;1.40;;;20.00;64.40;;;;;;5055596;28;20175;-68
2023/08/31 09:51:49;;;;;;;1.00;0.90;;;19.90;64.50;;;;;;5056502;28;20171;-68
2023/08/31 09:54:16;;;;;;;1.02;0.88;;;20.00;64.70;;;;;;5056091;28;20183;-68
2023/08/31 09:56:43;;;;;;;1.30;1.20;;;20.00;64.70;;;;;;5055751;28;20255;-67
2023/08/31 09:59:12;;;;;;;1.13;1.00;;;20.00;65.40;;;;;;5055877;28;20299;-69
2023/08/31 10:01:38;;;;;;;1.10;0.90;;;20.10;64.40;;;;;;5055258;28;20183;-69
2023/08/31 10:04:05;;;;;;;1.65;1.15;;;20.10;64.20;;;;;;5055126;28;20175;-70
2023/08/31 10:06:31;;;;;;;2.30;1.27;;;20.20;64.20;;;;;;5055077;28;20175;-69
2023/08/31 10:08:57;;;;;;;1.30;1.20;;;20.20;64.20;;;;;;5054974;28;20213;-69
2023/08/31 10:11:25;;;;;;;1.05;1.00;;;20.20;64.10;;;;;;5054924;28;20181;-68
2023/08/31 10:13:51;;;;;;;1.30;1.20;;;20.10;65.00;;;;;;5054789;28;20698;-67
2023/08/31 10:16:18;;;;;;;1.63;1.05;;;20.10;64.30;;;;;;5054497;28;20175;-67
2023/08/31 10:18:44;;;;;;;1.88;1.00;;;20.00;64.60;;;;;;5054056;28;20175;-67
2023/08/31 10:21:10;;;;;;;1.10;1.00;;;19.90;64.80;;;;;;5054212;28;20175;-68
2023/08/31 10:23:35;;;;;;;1.13;1.02;;;19.90;64.80;;;;;;5055763;28;20262;-67
2023/08/31 10:26:03;;;;;;;1.25;1.08;;;19.80;65.00;;;;;;5054974;28;20186;-67
2023/08/31 10:28:29;;;;;;;1.52;1.00;;;19.80;65.20;;;;;;5055619;28;20509;-67
2023/08/31 10:31:15;;;;;;;1.20;1.10;;;19.80;65.20;;;;;;5055560;28;20673;-68
2023/08/31 10:33:47;;;;;;;1.33;1.23;;;19.80;65.20;;;;;;5055830;28;20186;-69
2023/08/31 10:36:17;;;;;;;2.20;1.10;;;19.70;65.20;;;;;;5054184;28;20257;-69
2023/08/31 10:38:58;;;;;;;1.38;1.20;;;19.80;65.30;;;;;;5054866;28;20183;-68
2023/08/31 10:41:24;;;;;;;0.90;0.90;;;19.70;65.30;;;;;;5055328;28;20183;-69
2023/08/31 10:43:54;;;;;;;1.05;0.93;;;19.70;65.30;;;;;;5055255;28;20512;-68
2023/08/31 10:46:33;;;;;;;1.20;1.10;;;19.80;65.30;;;;;;5054301;28;20183;-69
2023/08/31 10:49:00;;;;;;;0.82;0.82;;;19.90;64.90;;;;;;5054878;28;20568;-68
2023/08/31 10:51:28;;;;;;;1.63;1.10;;;20.00;64.70;;;;;;5055357;28;20178;-68
2023/08/31 10:54:24;;;;;;;1.10;0.95;;;20.10;64.50;;;;;;5054504;28;20186;-68
2023/08/31 10:57:08;;;;;;;1.08;0.88;;;20.10;64.30;;;;;;5054964;28;20630;-68
2023/08/31 10:59:51;;;;;;;1.85;1.17;;;20.20;64.20;;;;;;5054062;28;21025;-68
2023/08/31 11:02:35;;;;;;;1.20;1.05;;;20.30;64.10;;;;;;5054603;28;20182;-68
2023/08/31 11:05:14;;;;;;;1.20;0.90;;;20.30;64.00;;;;;;5054918;28;20174;-69
2023/08/31 11:07:40;;;;;;;1.13;1.00;;;20.30;64.00;;;;;;5054201;28;20211;-68
2023/08/31 11:10:14;;;;;;;1.15;1.05;;;20.30;64.00;;;;;;5054429;28;20649;-68
2023/08/31 11:12:47;;;;;;;1.20;0.93;;;20.40;63.90;;;;;;5054817;28;20245;-66
2023/08/31 11:15:14;;;;;;;1.20;0.95;;;20.40;63.80;;;;;;5053506;28;20163;-67
2023/08/31 11:17:40;;;;;;;1.70;0.85;;;20.40;63.70;;;;;;5054377;28;20630;-67
2023/08/31 11:20:08;;;;;;;2.00;1.23;;;20.40;63.60;;;;;;5053930;28;20179;-67
2023/08/31 11:22:34;;;;;;;3.58;1.00;;;20.50;63.70;;;;;;5049553;28;20654;-66
2023/08/31 11:25:00;;;;;;;1.42;0.70;;;20.50;63.70;;;;;;5052821;28;20218;-71
2023/08/31 11:27:25;;;;;;;2.33;0.93;;;20.50;63.60;;;;;;5053511;28;20599;-67
2023/08/31 11:29:51;;;;;;;2.28;0.90;;;20.50;63.60;;;;;;5054274;28;20217;-68
2023/08/31 11:32:16;;;;;;;1.40;0.80;;;20.60;64.50;;;;;;5053361;28;20207;-69
2023/08/31 11:34:43;;;;;;;1.05;0.93;;;20.50;63.50;;;;;;5053330;28;20175;-71
2023/08/31 11:37:10;;;;;;;1.17;1.08;;;20.50;63.40;;;;;;5054117;28;20203;-69
2023/08/31 11:39:37;;;;;;;1.25;1.00;;;20.60;63.60;;;;;;5053115;28;20266;-68
2023/08/31 11:42:03;;;;;;;2.92;0.90;;;20.40;63.60;;;;;;5052326;28;20258;-68
2023/08/31 11:44:28;;;;;;;1.15;0.80;;;20.40;63.80;;;;;;5054342;28;20582;-68
2023/08/31 11:46:54;;;;;;;2.03;1.00;;;20.30;64.00;;;;;;5052625;28;20190;-68
2023/08/31 11:49:19;;;;;;;1.58;0.80;;;20.40;64.00;;;;;;5052500;28;20240;-68
2023/08/31 11:51:46;;;;;;;1.75;0.90;;;20.40;63.80;;;;;;5054019;28;20254;-72
2023/08/31 11:54:11;;;;;;;1.35;0.80;;;20.30;63.90;;;;;;5052555;28;20187;-72
2023/08/31 11:56:42;;;;;;;1.45;0.88;;;20.30;64.10;;;;;;5053348;28;20175;-70
2023/08/31 11:59:12;;;;;;;1.88;0.98;;;20.40;63.90;;;;;;5054017;28;20231;-72
2023/08/31 12:01:40;;;;;;;0.93;0.80;;;20.50;63.70;;;;;;5054267;28;20179;-72
2023/08/31 12:04:12;;;;;;;1.73;0.90;;;20.50;63.60;;;;;;5052967;28;20597;-73
2023/08/31 12:06:38;;;;;;;3.47;1.27;;;20.50;63.50;;;;;;5053907;28;20530;-72
2023/08/31 12:09:08;;;;;;;1.27;1.05;;;20.50;63.40;;;;;;5052424;28;20210;-73
2023/08/31 12:11:33;;;;;;;5.30;2.45;;;20.50;63.40;;;;;;5053049;28;20178;-72
2023/08/31 12:14:05;;;;;;;8.23;2.67;;;20.50;63.50;;;;;;5053390;28;20171;-72
2023/08/31 12:16:37;;;;;;;7.72;2.67;;;20.50;63.60;;;;;;5053798;28;20179;-71
2023/08/31 12:19:05;;;;;;;6.13;2.53;;;20.40;63.80;;;;;;5053237;28;20197;-73
2023/08/31 12:21:31;;;;;;;3.88;2.28;;;20.50;63.80;;;;;;5053424;28;20175;-72
2023/08/31 12:24:00;;;;;;;9.40;2.42;;;20.40;63.80;;;;;;5052963;28;20171;-68
2023/08/31 12:26:26;;;;;;;5.47;2.28;;;20.40;63.80;;;;;;5053414;28;20171;-69
2023/08/31 12:28:52;;;;;;;4.80;2.25;;;20.40;63.80;;;;;;5053381;28;20568;-72
2023/08/31 12:31:17;;;;;;;6.45;2.65;;;20.50;63.70;;;;;;5052386;28;20529;-72
2023/08/31 12:33:43;;;;;;;5.70;2.42;;;20.60;63.70;;;;;;5052163;28;20175;-73
2023/08/31 12:36:08;;;;;;;8.13;2.65;;;20.60;63.30;;;;;;5052705;28;20660;-72
2023/08/31 12:38:34;;;;;;;7.22;2.92;;;20.60;63.40;;;;;;5058202;28;20187;-68
2023/08/31 12:41:01;;;;;;;8.02;2.10;;;20.70;63.10;;;;;;5066185;28;20665;-70
2023/08/31 12:43:28;;;;;;;5.68;2.42;;;20.70;62.90;;;;;;5073143;28;20178;-70
2023/08/31 12:45:54;;;;;;;4.57;2.25;;;20.80;62.70;;;;;;5063263;28;20598;-71
2023/08/31 12:48:20;;;;;;;6.00;2.45;;;20.80;62.50;;;;;;5052704;28;20206;-70